createdAt,value
2024-01-10T00:03:08.860Z,146.00
2024-01-10T00:08:13.035Z,142.00
2024-01-10T00:13:17.293Z,161.00
2024-01-10T00:18:20.644Z,145.00
2024-01-10T00:23:24.250Z,160.33
2024-01-10T00:28:27.933Z,168.00
2024-01-10T00:33:31.286Z,148.00
2024-01-10T00:38:35.387Z,158.50
2024-01-10T00:43:38.674Z,161.00
2024-01-10T00:48:42.243Z,166.33
2024-01-10T00:53:45.555Z,159.33
2024-01-10T00:58:48.825Z,132.50
2024-01-10T01:03:53.298Z,157.00
2024-01-10T01:08:57.506Z,159.67
2024-01-10T01:14:00.654Z,167.50
2024-01-10T01:19:03.938Z,170.00
2024-01-10T01:24:07.357Z,166.33
2024-01-10T01:29:10.635Z,153.33
2024-01-10T01:34:14.166Z,149.00
2024-01-10T01:39:17.352Z,179.00
2024-01-10T01:44:20.597Z,141.00
2024-01-10T01:49:24.288Z,157.00
2024-01-10T01:54:28.414Z,172.00
2024-01-10T01:59:31.910Z,169.00
2024-01-10T02:04:35.886Z,153.00
2024-01-10T02:09:39.211Z,168.00
2024-01-10T02:14:42.580Z,162.00
2024-01-10T02:19:45.883Z,153.50
2024-01-10T02:24:55.213Z,154.00
2024-01-10T02:29:59.496Z,149.00
2024-01-10T02:35:02.775Z,167.67
2024-01-10T02:40:07.167Z,150.67
2024-01-10T02:45:11.330Z,164.50
2024-01-10T02:50:14.873Z,151.00
2024-01-10T02:55:18.238Z,164.00
2024-01-10T03:00:21.518Z,174.33
2024-01-10T03:05:25.378Z,164.50
2024-01-10T03:10:28.611Z,173.00
2024-01-10T03:15:32.521Z,165.67
2024-01-10T03:20:35.684Z,167.00
2024-01-10T03:25:39.147Z,171.00
2024-01-10T03:30:42.428Z,126.00
2024-01-10T03:35:45.683Z,130.00
2024-01-10T03:40:49.226Z,165.33
2024-01-10T03:45:52.321Z,171.33
2024-01-10T03:50:55.471Z,179.50
2024-01-10T03:55:58.808Z,162.00
2024-01-10T04:01:06.675Z,163.25
2024-01-10T04:06:09.924Z,161.25
2024-01-10T04:11:13.249Z,163.33
2024-01-10T04:16:16.668Z,171.50
2024-01-10T04:21:19.982Z,165.00
2024-01-10T04:26:23.136Z,165.00
2024-01-10T04:31:26.419Z,160.50
2024-01-10T04:36:29.620Z,166.67
2024-01-10T04:41:32.826Z,129.00
2024-01-10T04:46:37.394Z,166.50
2024-01-10T04:51:41.052Z,181.00
2024-01-10T04:56:45.804Z,171.00
2024-01-10T05:01:49.084Z,176.00
2024-01-10T05:06:52.624Z,175.67
2024-01-10T05:11:56.170Z,160.50
2024-01-10T05:16:59.376Z,177.00
2024-01-10T05:22:04.544Z,183.00
2024-01-10T05:27:09.073Z,196.33
2024-01-10T05:32:13.258Z,148.50
2024-01-10T05:37:16.736Z,176.50
2024-01-10T05:42:20.828Z,174.25
2024-01-10T05:47:24.352Z,176.50
2024-01-10T05:52:27.769Z,139.00
2024-01-10T05:57:31.613Z,185.00
2024-01-10T06:02:35.589Z,160.67
2024-01-10T06:07:40.491Z,151.00
2024-01-10T06:12:43.642Z,204.50
2024-01-10T06:17:47.018Z,202.50
2024-01-10T06:22:50.848Z,216.33
2024-01-10T06:27:54.078Z,241.25
2024-01-10T06:32:57.263Z,230.67
2024-01-10T06:38:00.610Z,199.00
2024-01-10T06:43:09.709Z,203.00
2024-01-10T06:48:13.598Z,173.00
2024-01-10T06:53:17.280Z,178.00
2024-01-10T06:58:20.570Z,175.00
2024-01-10T07:03:23.905Z,225.25
2024-01-10T07:08:28.218Z,222.00
2024-01-10T07:13:33.344Z,244.00
2024-01-10T07:18:37.033Z,243.00
2024-01-10T07:23:42.474Z,198.00
2024-01-10T07:28:45.826Z,193.50
2024-01-10T07:33:49.037Z,252.33
2024-01-10T07:38:52.482Z,257.00
2024-01-10T07:43:56.283Z,261.00
2024-01-10T07:49:02.084Z,286.50
2024-01-10T07:54:05.900Z,236.00
2024-01-10T07:59:09.330Z,246.50
2024-01-10T08:04:15.579Z,222.25
2024-01-10T08:09:20.386Z,225.67
2024-01-10T08:14:23.698Z,222.00
2024-01-10T08:19:30.837Z,220.50
2024-01-10T08:24:34.394Z,224.33
2024-01-10T08:29:37.800Z,231.50
2024-01-10T08:34:41.528Z,238.00
2024-01-10T08:39:46.062Z,240.50
2024-01-10T08:44:49.475Z,260.00
2024-01-10T08:49:53.035Z,252.33
2024-01-10T08:54:57.847Z,264.00
2024-01-10T09:00:01.285Z,284.50
2024-01-10T09:05:08.064Z,250.00
2024-01-10T09:10:12.450Z,248.50
2024-01-10T09:15:16.557Z,256.00
2024-01-10T09:20:20.415Z,286.00
2024-01-10T09:25:23.869Z,253.25
2024-01-10T09:30:27.562Z,267.50
2024-01-10T09:35:30.922Z,275.00
2024-01-10T09:40:34.839Z,236.67
2024-01-10T09:45:48.266Z,229.33
2024-01-10T09:50:52.044Z,239.00
2024-01-10T09:56:01.407Z,241.00
2024-01-10T10:01:06.985Z,239.00
2024-01-10T10:06:14.247Z,280.00
2024-01-10T10:11:20.318Z,223.00
2024-01-10T10:16:28.154Z,217.50
2024-01-10T10:21:32.124Z,233.00
2024-01-10T10:26:36.431Z,145.50
2024-01-10T10:31:40.025Z,196.00
2024-01-10T10:36:45.129Z,198.33
2024-01-10T10:41:49.608Z,189.50
2024-01-10T10:47:08.636Z,200.50
2024-01-10T10:52:15.348Z,185.50
2024-01-10T10:57:20.493Z,204.67
2024-01-10T11:02:30.237Z,183.50
2024-01-10T11:07:37.962Z,189.00
2024-01-10T11:13:09.900Z,77.33
2024-01-10T11:18:29.194Z,56.00
2024-01-10T11:23:47.898Z,78.00
2024-01-10T11:28:51.992Z,209.00
2024-01-10T11:34:00.504Z,90.00
2024-01-10T11:39:07.671Z,186.00
2024-01-10T11:44:14.730Z,84.00
2024-01-10T11:49:20.479Z,93.00
2024-01-10T11:54:40.142Z,90.50
2024-01-10T11:59:47.905Z,75.67
2024-01-10T12:04:51.394Z,93.50
2024-01-10T12:09:56.337Z,77.00
2024-01-10T12:15:00.062Z,89.50
2024-01-10T12:20:04.031Z,86.00
2024-01-10T12:25:11.074Z,88.00
2024-01-10T12:30:14.643Z,77.25
2024-01-10T12:35:21.489Z,88.00
2024-01-10T12:40:24.855Z,80.25
2024-01-10T12:45:28.234Z,97.67
2024-01-10T12:50:31.583Z,100.00
2024-01-10T12:55:34.987Z,94.33
2024-01-10T13:00:38.310Z,85.00
2024-01-10T13:05:42.625Z,91.00
2024-01-10T13:10:47.226Z,97.75
2024-01-10T13:15:51.776Z,106.00
2024-01-10T13:20:55.284Z,86.50
2024-01-10T13:25:58.569Z,89.00
2024-01-10T13:31:02.211Z,85.00
2024-01-10T13:36:06.651Z,83.33
2024-01-10T13:41:10.665Z,91.00
2024-01-10T13:46:14.289Z,89.33
2024-01-10T13:51:17.508Z,100.50
2024-01-10T13:56:21.138Z,99.33
2024-01-10T14:01:24.681Z,88.67
2024-01-10T14:06:28.368Z,100.75
2024-01-10T14:11:32.459Z,103.00
2024-01-10T14:16:36.003Z,106.00
2024-01-10T14:21:40.206Z,80.50
2024-01-10T14:26:45.415Z,99.00
2024-01-10T14:32:03.000Z,76.00
2024-01-10T14:37:12.395Z,84.00
2024-01-10T14:42:15.860Z,80.00
2024-01-10T14:47:20.464Z,75.00
2024-01-10T14:52:25.626Z,78.33
2024-01-10T14:57:29.340Z,70.00
2024-01-10T15:02:32.811Z,178.33
2024-01-10T15:07:36.570Z,161.00
2024-01-10T15:12:40.096Z,79.00
2024-01-10T15:17:43.623Z,79.75
2024-01-10T15:22:47.681Z,76.50
2024-01-10T15:31:23.327Z,186.00
2024-01-10T15:36:29.119Z,80.00
2024-01-10T15:41:32.392Z,75.33
2024-01-10T15:46:35.526Z,188.00
2024-01-10T15:51:39.275Z,182.00
2024-01-10T15:56:47.237Z,190.00
2024-01-10T16:01:56.956Z,177.00
2024-01-10T16:07:00.385Z,183.67
2024-01-10T16:12:05.778Z,74.00
2024-01-10T16:17:09.967Z,177.00
2024-01-10T16:22:13.316Z,169.50
2024-01-10T16:27:16.718Z,162.67
2024-01-10T16:32:21.005Z,53.00
2024-01-10T16:37:24.689Z,186.00
2024-01-10T16:42:30.749Z,170.00
2024-01-10T16:47:34.260Z,169.00
2024-01-10T16:52:39.859Z,186.00
2024-01-10T16:57:44.169Z,175.00
2024-01-10T17:02:47.794Z,177.00
2024-01-10T17:07:52.024Z,193.50
2024-01-10T17:12:56.518Z,181.50
2024-01-10T17:18:01.338Z,180.50
2024-01-10T17:23:05.609Z,193.00
2024-01-10T17:28:09.127Z,203.50
2024-01-10T17:33:13.836Z,193.67
2024-01-10T17:38:17.988Z,230.00
2024-01-10T17:43:21.678Z,205.00
2024-01-10T17:48:25.428Z,150.33
2024-01-10T17:53:29.049Z,171.50
2024-01-10T17:58:32.719Z,179.50
2024-01-10T18:03:36.168Z,166.50
2024-01-10T18:08:39.585Z,181.00
2024-01-10T18:13:43.436Z,188.00
2024-01-10T18:18:46.880Z,181.00
2024-01-10T18:23:50.646Z,164.00
2024-01-10T18:28:54.226Z,178.00
2024-01-10T18:33:57.715Z,171.50
2024-01-10T18:39:01.706Z,149.67
2024-01-10T18:44:05.463Z,69.00
2024-01-10T18:49:09.582Z,112.00
2024-01-10T18:54:13.236Z,62.00
2024-01-10T18:59:17.093Z,58.00
2024-01-10T19:04:21.117Z,103.00
2024-01-10T19:09:24.559Z,58.00
2024-01-10T19:14:27.899Z,63.00
2024-01-10T19:19:32.444Z,46.50
2024-01-10T19:24:37.113Z,52.00
2024-01-10T19:29:41.052Z,54.00
2024-01-10T19:34:44.530Z,108.50
2024-01-10T19:39:47.995Z,148.00
2024-01-10T19:44:54.524Z,75.00
2024-01-10T19:49:58.471Z,177.50
2024-01-10T19:55:02.098Z,147.00
2024-01-10T20:00:06.761Z,183.00
2024-01-10T20:05:10.765Z,181.50
2024-01-10T20:10:16.338Z,193.00
2024-01-10T20:15:19.846Z,167.00
2024-01-10T20:20:23.519Z,170.67
2024-01-10T20:25:30.957Z,179.00
2024-01-10T20:30:34.619Z,182.00
2024-01-10T20:35:38.740Z,182.00
2024-01-10T20:40:42.202Z,200.00
2024-01-10T20:45:45.875Z,213.00
2024-01-10T20:54:46.365Z,192.50
2024-01-10T20:59:52.353Z,206.33
2024-01-10T21:04:55.758Z,200.33
2024-01-10T21:09:57.616Z,155.50
2024-01-10T21:18:16.067Z,110.50
2024-01-10T21:29:53.536Z,108.00
2024-01-10T21:34:57.813Z,144.00
2024-01-10T21:42:24.525Z,134.00
2024-01-10T21:49:21.280Z,123.50
2024-01-10T21:56:51.396Z,85.00
2024-01-10T22:03:53.192Z,54.50
2024-01-10T22:08:56.394Z,86.00
2024-01-10T22:15:08.334Z,72.00
2024-01-10T22:21:08.361Z,76.00
2024-01-10T22:26:11.743Z,94.00
2024-01-10T22:36:51.538Z,63.00
2024-01-10T22:41:54.696Z,78.00
2024-01-10T22:53:11.434Z,53.00
2024-01-10T22:58:15.708Z,36.50
2024-01-10T23:03:20.970Z,33.00
2024-01-10T23:08:24.286Z,21.50
2024-01-10T23:13:27.699Z,31.67
2024-01-10T23:18:31.036Z,31.00
2024-01-10T23:23:34.251Z,23.00
2024-01-10T23:28:38.364Z,30.00
2024-01-10T23:33:41.492Z,20.50
2024-01-10T23:38:44.729Z,41.00
2024-01-10T23:43:47.920Z,67.00
2024-01-10T23:48:51.282Z,31.00
2024-01-10T23:53:54.575Z,80.50
2024-01-10T23:58:57.838Z,89.00
